Time;durP1;ratioP1;P1;durP2;ratioP2;P2;SDS_P1;SDS_P2;PMS_P1;PMS_P2;Temp;Humidity;BMP_temperature;BMP_pressure;BME280_temperature;BME280_humidity;BME280_pressure;Samples;Min_cycle;Max_cycle;Signal;HPM_P1;HPM_P2
2023/08/16 00:02:11;;;;;;;0.10;0.10;;;21.20;99.90;;;;;;5090992;28;20027;-71
2023/08/16 00:04:36;;;;;;;0.00;0.00;;;21.30;99.90;;;;;;5094927;28;20111;-71
2023/08/16 00:07:02;;;;;;;0.00;0.00;;;21.40;99.90;;;;;;5094857;28;20032;-74
2023/08/16 00:09:28;;;;;;;0.00;0.00;;;21.00;99.90;;;;;;5094954;28;20377;-72
2023/08/16 00:11:55;;;;;;;0.00;0.00;;;20.80;99.90;;;;;;5093323;28;20024;-77
2023/08/16 00:14:22;;;;;;;0.00;0.00;;;20.60;99.90;;;;;;5100475;28;20942;-72
2023/08/16 00:16:48;;;;;;;0.20;0.20;;;20.70;99.90;;;;;;5106357;28;20099;-73
2023/08/16 00:19:14;;;;;;;0.55;0.47;;;20.70;99.90;;;;;;5101602;28;20016;-79
2023/08/16 00:21:41;;;;;;;0.10;0.10;;;20.50;99.90;;;;;;5108120;28;20157;-82
2023/08/16 00:24:07;;;;;;;0.00;0.00;;;20.50;99.90;;;;;;5106131;28;20031;-82
2023/08/16 00:26:33;;;;;;;0.10;0.10;;;20.50;99.90;;;;;;5113837;28;20051;-78
2023/08/16 00:29:00;;;;;;;0.00;0.00;;;20.40;99.90;;;;;;5100406;28;20020;-74
2023/08/16 00:31:25;;;;;;;0.00;0.00;;;20.30;99.90;;;;;;5095198;28;20023;-76
2023/08/16 00:33:51;;;;;;;0.00;0.00;;;20.40;99.90;;;;;;5109199;28;20098;-76
2023/08/16 00:36:17;;;;;;;0.00;0.00;;;20.60;99.90;;;;;;5108387;28;20028;-73
2023/08/16 00:38:43;;;;;;;0.15;0.15;;;20.80;99.90;;;;;;5113463;28;20055;-72
2023/08/16 00:41:12;;;;;;;1.38;0.45;;;20.90;99.90;;;;;;5112450;28;20050;-79
2023/08/16 00:43:39;;;;;;;1.08;0.75;;;20.80;99.90;;;;;;5102582;28;20149;-75
2023/08/16 00:46:08;;;;;;;0.00;0.00;;;20.90;99.90;;;;;;5098946;28;20059;-80
2023/08/16 00:48:36;;;;;;;0.03;0.03;;;21.00;99.90;;;;;;5099192;28;20027;-85
2023/08/16 00:51:03;;;;;;;0.00;0.00;;;20.80;99.90;;;;;;5104163;28;20486;-77
2023/08/16 00:53:30;;;;;;;0.00;0.00;;;20.80;99.90;;;;;;5101907;28;20103;-75
2023/08/16 00:55:57;;;;;;;0.00;0.00;;;20.60;99.90;;;;;;5093448;28;20032;-84
2023/08/16 00:58:24;;;;;;;0.00;0.00;;;20.60;99.90;;;;;;5093936;28;20017;-79
2023/08/16 01:00:50;;;;;;;0.00;0.00;;;20.60;99.90;;;;;;5106925;28;20027;-78
2023/08/16 01:03:16;;;;;;;0.00;0.00;;;20.80;99.90;;;;;;5111262;28;20069;-75
2023/08/16 01:05:42;;;;;;;0.00;0.00;;;20.50;99.90;;;;;;5110009;28;20043;-81
2023/08/16 01:08:08;;;;;;;0.00;0.00;;;20.50;99.90;;;;;;5113980;28;20349;-83
2023/08/16 01:10:57;;;;;;;0.00;0.00;;;20.60;99.90;;;;;;5095204;28;20803;-80
2023/08/16 01:13:34;;;;;;;0.00;0.00;;;20.70;99.90;;;;;;5097008;28;20028;-83
2023/08/16 01:16:07;;;;;;;0.00;0.00;;;20.70;99.90;;;;;;5088348;28;20080;-80
2023/08/16 01:18:40;;;;;;;0.00;0.00;;;20.60;99.90;;;;;;5102439;28;20039;-74
2023/08/16 01:21:08;;;;;;;0.00;0.00;;;20.70;99.90;;;;;;5087263;28;20071;-77
2023/08/16 01:24:13;;;;;;;0.08;0.08;;;20.80;99.90;;;;;;5093726;28;20031;-73
2023/08/16 01:26:41;;;;;;;0.00;0.00;;;20.80;99.90;;;;;;5061731;28;20039;-83
2023/08/16 01:29:09;;;;;;;0.00;0.00;;;20.70;99.90;;;;;;5103608;28;20024;-82
2023/08/16 01:31:35;;;;;;;0.05;0.05;;;21.00;99.90;;;;;;5094544;28;20482;-72
2023/08/16 01:34:01;;;;;;;0.40;0.40;;;20.70;99.90;;;;;;5073433;28;20024;-74
2023/08/16 01:36:27;;;;;;;0.00;0.00;;;20.30;99.90;;;;;;5098490;28;20528;-73
2023/08/16 01:38:55;;;;;;;0.00;0.00;;;20.10;99.90;;;;;;5096172;28;20043;-72
2023/08/16 01:41:39;;;;;;;0.00;0.00;;;20.40;99.90;;;;;;5103292;28;20028;-73
2023/08/16 01:44:08;;;;;;;0.30;0.30;;;20.60;99.90;;;;;;5102068;28;20059;-73
2023/08/16 01:46:35;;;;;;;0.00;0.00;;;20.30;99.90;;;;;;5103343;28;20032;-73
2023/08/16 01:49:01;;;;;;;0.00;0.00;;;20.10;99.90;;;;;;5105611;28;20023;-73
2023/08/16 01:51:28;;;;;;;0.00;0.00;;;20.20;99.90;;;;;;5098557;28;20047;-73
2023/08/16 01:53:54;;;;;;;0.10;0.10;;;20.10;99.90;;;;;;5092185;28;20452;-73
2023/08/16 01:56:21;;;;;;;0.00;0.00;;;20.10;99.90;;;;;;5092724;28;20035;-73
2023/08/16 01:58:47;;;;;;;0.08;0.08;;;20.10;99.90;;;;;;5074692;28;20023;-73
2023/08/16 02:01:14;;;;;;;0.00;0.00;;;19.90;99.90;;;;;;5090299;28;20061;-73
2023/08/16 02:03:40;;;;;;;0.00;0.00;;;19.90;99.90;;;;;;5110983;28;20034;-73
2023/08/16 02:06:06;;;;;;;0.00;0.00;;;19.90;99.90;;;;;;5111785;28;20062;-73
2023/08/16 02:08:32;;;;;;;0.00;0.00;;;20.00;99.90;;;;;;5098313;28;20028;-73
2023/08/16 02:10:58;;;;;;;0.00;0.00;;;20.20;99.90;;;;;;5111203;28;20081;-73
2023/08/16 02:13:26;;;;;;;0.05;0.05;;;20.30;99.90;;;;;;5111897;28;20012;-73
2023/08/16 02:16:02;;;;;;;0.00;0.00;;;20.40;99.90;;;;;;5112243;28;20032;-73
2023/08/16 02:18:30;;;;;;;0.00;0.00;;;20.30;99.90;;;;;;5109591;28;20024;-72
2023/08/16 02:20:56;;;;;;;0.00;0.00;;;20.40;99.90;;;;;;5101417;28;20027;-73
2023/08/16 02:23:22;;;;;;;0.00;0.00;;;20.50;99.90;;;;;;5112458;28;20031;-73
2023/08/16 02:25:48;;;;;;;0.00;0.00;;;20.50;99.90;;;;;;5113071;28;20084;-73
2023/08/16 02:28:14;;;;;;;0.00;0.00;;;20.50;99.90;;;;;;5113220;28;20462;-77
2023/08/16 02:30:40;;;;;;;0.00;0.00;;;20.70;99.90;;;;;;5113198;28;20023;-73
2023/08/16 02:33:06;;;;;;;0.00;0.00;;;20.60;99.90;;;;;;5112732;28;20559;-73
2023/08/16 02:35:32;;;;;;;0.10;0.10;;;20.60;99.90;;;;;;5109450;28;20107;-75
2023/08/16 02:37:58;;;;;;;0.00;0.00;;;20.50;99.90;;;;;;5103439;28;20055;-73
2023/08/16 02:40:24;;;;;;;0.00;0.00;;;20.40;99.90;;;;;;5115906;28;20019;-73
2023/08/16 02:42:50;;;;;;;0.30;0.30;;;20.20;99.90;;;;;;5117028;28;20612;-73
2023/08/16 02:45:17;;;;;;;0.00;0.00;;;20.40;99.90;;;;;;5117162;28;20124;-80
2023/08/16 02:47:45;;;;;;;0.00;0.00;;;20.30;99.90;;;;;;5115678;28;20022;-74
2023/08/16 02:50:11;;;;;;;0.15;0.15;;;20.10;99.90;;;;;;5098959;28;20036;-73
2023/08/16 02:52:37;;;;;;;0.00;0.00;;;20.20;99.90;;;;;;5115350;28;20042;-73
2023/08/16 02:55:04;;;;;;;0.00;0.00;;;20.20;99.90;;;;;;5115750;28;20556;-74
2023/08/16 02:57:30;;;;;;;2.30;1.75;;;19.90;99.90;;;;;;5116498;28;20054;-81
2023/08/16 02:59:56;;;;;;;0.00;0.00;;;19.60;99.90;;;;;;5116961;28;20012;-79
2023/08/16 03:02:21;;;;;;;0.00;0.00;;;19.50;99.90;;;;;;5116786;28;20026;-81
2023/08/16 03:04:47;;;;;;;0.00;0.00;;;19.40;99.90;;;;;;5115314;28;20059;-75
2023/08/16 03:07:13;;;;;;;0.00;0.00;;;19.60;99.90;;;;;;5116549;28;20032;-79
2023/08/16 03:09:39;;;;;;;0.00;0.00;;;19.80;99.90;;;;;;5111760;28;20028;-83
2023/08/16 03:12:06;;;;;;;0.00;0.00;;;19.90;99.90;;;;;;5104556;28;20051;-78
2023/08/16 03:14:32;;;;;;;0.47;0.47;;;20.00;99.90;;;;;;5114946;28;20426;-79
2023/08/16 03:16:59;;;;;;;0.00;0.00;;;20.00;99.90;;;;;;5115475;28;20024;-73
2023/08/16 03:19:25;;;;;;;3.83;2.05;;;19.90;99.90;;;;;;5102014;28;20076;-78
2023/08/16 03:21:53;;;;;;;0.10;0.10;;;19.90;99.90;;;;;;5096808;28;20028;-79
2023/08/16 03:24:19;;;;;;;0.75;0.40;;;19.70;99.90;;;;;;5100465;28;20150;-82
2023/08/16 03:26:45;;;;;;;2.53;2.28;;;19.30;99.90;;;;;;5101193;28;20119;-76
2023/08/16 03:29:11;;;;;;;0.88;0.65;;;19.10;99.90;;;;;;5103910;28;20031;-82
2023/08/16 03:31:37;;;;;;;0.00;0.00;;;19.00;99.90;;;;;;5088711;28;20387;-73
2023/08/16 03:34:05;;;;;;;0.00;0.00;;;19.10;99.90;;;;;;5105133;28;20019;-73
2023/08/16 03:36:31;;;;;;;0.00;0.00;;;19.20;99.90;;;;;;5110021;28;20035;-84
2023/08/16 03:39:05;;;;;;;0.00;0.00;;;19.60;99.90;;;;;;5109242;28;20055;-74
2023/08/16 03:41:32;;;;;;;0.00;0.00;;;19.70;99.90;;;;;;5114058;28;20376;-84
2023/08/16 03:43:58;;;;;;;0.10;0.10;;;19.80;99.90;;;;;;5112822;28;20019;-81
2023/08/16 03:46:24;;;;;;;0.00;0.00;;;19.60;99.90;;;;;;5112891;28;20035;-76
2023/08/16 03:48:50;;;;;;;0.00;0.00;;;19.50;99.90;;;;;;5110998;28;20729;-80
2023/08/16 03:51:16;;;;;;;0.00;0.00;;;19.60;99.90;;;;;;5112420;28;20074;-76
2023/08/16 03:53:44;;;;;;;0.00;0.00;;;19.80;99.90;;;;;;5110630;28;20043;-83
2023/08/16 03:56:09;;;;;;;0.00;0.00;;;19.80;99.90;;;;;;5102819;28;20051;-74
2023/08/16 03:58:35;;;;;;;0.00;0.00;;;20.00;99.90;;;;;;5108729;28;20028;-74
2023/08/16 04:01:01;;;;;;;0.00;0.00;;;20.00;99.90;;;;;;5106752;28;20361;-84
2023/08/16 04:03:27;;;;;;;0.20;0.20;;;20.00;99.90;;;;;;5111833;28;20085;-75
2023/08/16 04:05:53;;;;;;;0.00;0.00;;;20.10;99.90;;;;;;5093428;28;20048;-77
2023/08/16 04:08:19;;;;;;;0.00;0.00;;;20.20;99.90;;;;;;5113449;28;20019;-73
2023/08/16 04:10:45;;;;;;;0.40;0.40;;;19.70;99.90;;;;;;5098222;28;20035;-79
2023/08/16 04:13:11;;;;;;;0.00;0.00;;;19.50;99.90;;;;;;5099966;28;20475;-79
2023/08/16 04:15:36;;;;;;;0.00;0.00;;;19.50;99.90;;;;;;5115352;27;20023;-72
2023/08/16 04:18:03;;;;;;;0.30;0.30;;;19.50;99.90;;;;;;5115007;28;20391;-75
2023/08/16 04:20:29;;;;;;;0.00;0.00;;;19.60;99.90;;;;;;5113817;28;20027;-73
2023/08/16 04:22:56;;;;;;;0.10;0.10;;;19.60;99.90;;;;;;5113734;28;20472;-76
2023/08/16 04:25:22;;;;;;;3.72;1.00;;;19.60;99.90;;;;;;5115051;28;20114;-80
2023/08/16 04:27:49;;;;;;;0.00;0.00;;;19.70;99.90;;;;;;5113900;28;20047;-75
2023/08/16 04:30:15;;;;;;;0.00;0.00;;;19.60;99.90;;;;;;5113528;28;20063;-76
2023/08/16 04:32:41;;;;;;;0.00;0.00;;;19.70;99.90;;;;;;5113375;28;20119;-78
2023/08/16 04:35:08;;;;;;;0.00;0.00;;;19.80;99.90;;;;;;5112961;28;20028;-74
2023/08/16 04:37:34;;;;;;;0.00;0.00;;;19.40;99.90;;;;;;5113601;28;20023;-80
2023/08/16 04:40:00;;;;;;;0.00;0.00;;;19.60;99.90;;;;;;5113416;28;20028;-76
2023/08/16 04:42:27;;;;;;;0.03;0.03;;;19.60;99.90;;;;;;5113757;28;20027;-73
2023/08/16 04:44:54;;;;;;;1.10;0.52;;;19.60;99.90;;;;;;5113370;28;20023;-76
2023/08/16 04:47:20;;;;;;;0.38;0.38;;;19.60;99.90;;;;;;5112873;28;20020;-73
2023/08/16 04:49:46;;;;;;;0.00;0.00;;;19.50;99.90;;;;;;5115168;28;20554;-72
2023/08/16 04:52:12;;;;;;;0.00;0.00;;;19.40;99.90;;;;;;5114206;28;20029;-72
2023/08/16 04:54:37;;;;;;;0.00;0.00;;;19.40;99.90;;;;;;5114681;27;20091;-72
2023/08/16 04:57:04;;;;;;;0.00;0.00;;;19.30;99.90;;;;;;5113145;28;20076;-73
2023/08/16 04:59:34;;;;;;;0.17;0.17;;;19.60;99.90;;;;;;5113246;28;20028;-72
2023/08/16 05:02:01;;;;;;;0.00;0.00;;;19.50;99.90;;;;;;5097730;28;20032;-72
2023/08/16 05:04:26;;;;;;;0.57;0.57;;;19.50;99.90;;;;;;5070866;28;20095;-73
2023/08/16 05:06:52;;;;;;;0.00;0.00;;;19.60;99.90;;;;;;5080986;28;20036;-73
2023/08/16 05:09:18;;;;;;;0.00;0.00;;;19.70;99.90;;;;;;5090726;28;20020;-72
2023/08/16 05:11:44;;;;;;;0.00;0.00;;;19.60;99.90;;;;;;5100261;28;20050;-73
2023/08/16 05:14:10;;;;;;;0.00;0.00;;;19.60;99.90;;;;;;5113129;28;20051;-73
2023/08/16 05:16:36;;;;;;;0.00;0.00;;;19.60;99.90;;;;;;5112424;28;20039;-73
2023/08/16 05:19:02;;;;;;;0.00;0.00;;;19.60;99.90;;;;;;5112986;28;20031;-73
2023/08/16 05:21:29;;;;;;;0.20;0.20;;;19.60;99.90;;;;;;5112422;28;20024;-74
2023/08/16 05:23:55;;;;;;;0.20;0.20;;;19.60;99.90;;;;;;5114063;28;20023;-73
2023/08/16 05:26:21;;;;;;;0.00;0.00;;;19.30;99.90;;;;;;5110195;28;20488;-73
2023/08/16 05:28:47;;;;;;;0.00;0.00;;;19.40;99.90;;;;;;5113945;27;20026;-73
2023/08/16 05:31:13;;;;;;;0.30;0.30;;;19.60;99.90;;;;;;5113727;28;20024;-73
2023/08/16 05:33:39;;;;;;;0.10;0.10;;;19.50;99.90;;;;;;5112041;28;20425;-79
2023/08/16 05:36:05;;;;;;;1.13;0.63;;;19.20;99.90;;;;;;5112521;28;20023;-73
2023/08/16 05:38:32;;;;;;;0.10;0.10;;;19.20;99.90;;;;;;5113686;28;20446;-73
2023/08/16 05:40:58;;;;;;;0.00;0.00;;;19.40;99.90;;;;;;5113873;28;20455;-74
2023/08/16 05:43:24;;;;;;;0.00;0.00;;;19.50;99.90;;;;;;5113381;28;20072;-73
2023/08/16 05:45:50;;;;;;;0.00;0.00;;;19.70;99.90;;;;;;5111862;28;20048;-73
2023/08/16 05:48:16;;;;;;;0.08;0.08;;;20.00;99.90;;;;;;5109200;28;20056;-74
2023/08/16 05:50:42;;;;;;;0.00;0.00;;;20.20;99.90;;;;;;5092787;28;20066;-76
2023/08/16 05:53:09;;;;;;;0.00;0.00;;;20.30;99.90;;;;;;5091996;28;20085;-80
2023/08/16 05:55:34;;;;;;;0.00;0.00;;;20.40;99.90;;;;;;5097150;28;20007;-82
2023/08/16 05:58:00;;;;;;;0.05;0.05;;;20.50;99.90;;;;;;5103902;28;20034;-84
2023/08/16 06:00:26;;;;;;;0.00;0.00;;;20.50;99.90;;;;;;5098948;28;20434;-79
2023/08/16 06:02:53;;;;;;;0.10;0.10;;;20.40;99.90;;;;;;5094547;28;20028;-79
2023/08/16 06:05:19;;;;;;;0.00;0.00;;;20.50;99.90;;;;;;5106773;28;20044;-74
2023/08/16 06:07:45;;;;;;;0.00;0.00;;;20.60;99.90;;;;;;5106366;28;20462;-74
2023/08/16 06:10:11;;;;;;;0.00;0.00;;;20.80;99.90;;;;;;5100223;28;20032;-80
2023/08/16 06:12:37;;;;;;;0.00;0.00;;;20.70;99.90;;;;;;5102225;28;20589;-77
2023/08/16 06:15:04;;;;;;;0.00;0.00;;;20.80;99.90;;;;;;5106862;28;20019;-80
2023/08/16 06:17:29;;;;;;;0.00;0.00;;;20.90;99.90;;;;;;5102253;28;20034;-78
2023/08/16 06:19:56;;;;;;;0.00;0.00;;;20.70;99.90;;;;;;5095666;28;20111;-79
2023/08/16 06:22:22;;;;;;;0.45;0.45;;;20.70;99.90;;;;;;5104081;28;20467;-81
2023/08/16 06:24:48;;;;;;;0.00;0.00;;;21.00;99.90;;;;;;5106891;28;20055;-80
2023/08/16 06:27:14;;;;;;;0.03;0.03;;;20.90;99.90;;;;;;5108316;28;20066;-80
2023/08/16 06:29:39;;;;;;;0.00;0.00;;;20.90;99.90;;;;;;5097624;28;20015;-80
2023/08/16 06:32:06;;;;;;;0.47;0.47;;;20.90;99.90;;;;;;5102273;28;20527;-79
2023/08/16 06:34:33;;;;;;;0.13;0.13;;;20.90;99.90;;;;;;5106192;28;20475;-78
2023/08/16 06:36:59;;;;;;;0.10;0.10;;;20.80;99.90;;;;;;5107741;28;20035;-81
2023/08/16 06:39:25;;;;;;;1.35;0.88;;;20.80;99.90;;;;;;5100524;28;20036;-80
2023/08/16 06:41:51;;;;;;;0.20;0.20;;;20.80;99.90;;;;;;5093141;28;20023;-81
2023/08/16 06:44:18;;;;;;;0.00;0.00;;;20.60;99.90;;;;;;5091489;28;20032;-81
2023/08/16 06:46:43;;;;;;;0.22;0.20;;;20.40;99.90;;;;;;5097477;28;20044;-79
2023/08/16 06:49:09;;;;;;;0.00;0.00;;;20.60;99.90;;;;;;5098721;28;20035;-80
2023/08/16 06:51:35;;;;;;;19.48;2.28;;;20.70;99.90;;;;;;5098522;28;20024;-80
2023/08/16 06:54:01;;;;;;;0.80;0.30;;;20.80;99.90;;;;;;5091781;28;20395;-80
2023/08/16 06:56:27;;;;;;;1.73;1.25;;;20.80;99.90;;;;;;5091229;28;20028;-80
2023/08/16 06:58:53;;;;;;;0.00;0.00;;;21.00;99.90;;;;;;5099814;28;20035;-80
2023/08/16 07:01:18;;;;;;;0.90;0.90;;;21.30;99.90;;;;;;5097945;28;20024;-80
2023/08/16 07:03:44;;;;;;;0.65;0.40;;;21.40;99.90;;;;;;5095036;28;20065;-81
2023/08/16 07:06:10;;;;;;;0.00;0.00;;;21.60;99.90;;;;;;5091826;28;20039;-80
2023/08/16 07:08:36;;;;;;;0.00;0.00;;;21.80;99.90;;;;;;5101435;28;20098;-81
2023/08/16 07:11:02;;;;;;;0.20;0.20;;;22.00;99.90;;;;;;5091272;28;20141;-79
2023/08/16 07:13:28;;;;;;;0.00;0.00;;;22.10;99.90;;;;;;5097041;28;20028;-80
2023/08/16 07:15:53;;;;;;;0.77;0.43;;;22.30;99.90;;;;;;5109935;28;20024;-80
2023/08/16 07:18:20;;;;;;;0.20;0.20;;;22.60;99.90;;;;;;5096590;28;20032;-81
2023/08/16 07:20:45;;;;;;;0.05;0.05;;;22.70;99.90;;;;;;5092839;28;20119;-80
2023/08/16 07:23:11;;;;;;;0.00;0.00;;;22.60;99.90;;;;;;5092026;28;20040;-81
2023/08/16 07:25:37;;;;;;;0.10;0.10;;;22.40;99.90;;;;;;5106369;28;20020;-80
2023/08/16 07:28:04;;;;;;;0.17;0.17;;;22.50;99.90;;;;;;5095760;28;20032;-79
2023/08/16 07:30:30;;;;;;;1.08;0.45;;;22.30;99.90;;;;;;5103897;28;20023;-78
2023/08/16 07:32:56;;;;;;;0.00;0.00;;;22.30;99.90;;;;;;5101003;28;20467;-77
2023/08/16 07:35:22;;;;;;;1.00;0.85;;;22.30;99.90;;;;;;5108994;27;20551;-81
2023/08/16 07:37:48;;;;;;;0.00;0.00;;;22.10;99.90;;;;;;5109940;28;20349;-77
2023/08/16 07:40:14;;;;;;;0.00;0.00;;;22.20;99.90;;;;;;5107863;28;20028;-82
2023/08/16 07:42:40;;;;;;;0.25;0.25;;;22.20;99.90;;;;;;5110495;28;20440;-83
2023/08/16 07:45:06;;;;;;;0.35;0.32;;;22.30;99.90;;;;;;5107164;28;20034;-81
2023/08/16 07:47:32;;;;;;;1.40;0.63;;;22.10;99.90;;;;;;5093338;28;20036;-78
2023/08/16 07:49:58;;;;;;;0.00;0.00;;;22.00;99.90;;;;;;5101112;28;20549;-77
2023/08/16 07:52:24;;;;;;;0.00;0.00;;;22.00;99.90;;;;;;5106599;28;20023;-82
2023/08/16 07:54:50;;;;;;;1.23;1.15;;;22.20;99.90;;;;;;5101878;28;20080;-79
2023/08/16 07:57:16;;;;;;;0.13;0.13;;;22.30;99.90;;;;;;5106395;28;20036;-78
2023/08/16 07:59:42;;;;;;;0.65;0.45;;;22.30;99.90;;;;;;5107840;28;20027;-78
2023/08/16 08:02:08;;;;;;;0.00;0.00;;;22.20;99.90;;;;;;5098886;28;20036;-78
2023/08/16 08:04:35;;;;;;;0.32;0.32;;;22.30;99.90;;;;;;5106258;28;20154;-80
2023/08/16 08:07:01;;;;;;;0.00;0.00;;;22.40;99.90;;;;;;5104043;28;20069;-81
2023/08/16 08:09:27;;;;;;;1.90;0.52;;;22.60;99.90;;;;;;5100500;28;20036;-84
2023/08/16 08:11:53;;;;;;;0.15;0.15;;;22.90;99.90;;;;;;5103458;28;20463;-73
2023/08/16 08:14:19;;;;;;;0.45;0.38;;;22.90;99.90;;;;;;5103907;28;20031;-73
2023/08/16 08:16:45;;;;;;;0.25;0.25;;;23.10;99.90;;;;;;5104797;28;20151;-77
2023/08/16 08:19:11;;;;;;;0.10;0.10;;;22.90;99.90;;;;;;5103727;28;20638;-74
2023/08/16 08:21:37;;;;;;;0.80;0.50;;;22.90;99.90;;;;;;5085905;28;20032;-73
2023/08/16 08:24:03;;;;;;;0.10;0.10;;;23.10;99.90;;;;;;5092902;28;20178;-73
2023/08/16 08:26:30;;;;;;;0.00;0.00;;;23.20;99.90;;;;;;5079406;28;20043;-73
2023/08/16 08:28:56;;;;;;;3.00;1.83;;;23.60;99.90;;;;;;5090751;28;20032;-75
2023/08/16 08:31:23;;;;;;;0.00;0.00;;;23.30;99.90;;;;;;5087719;28;20475;-74
2023/08/16 08:33:49;;;;;;;0.30;0.30;;;23.40;99.90;;;;;;5089687;28;20015;-74
2023/08/16 08:36:15;;;;;;;0.10;0.10;;;23.70;99.90;;;;;;5097652;27;20039;-74
2023/08/16 08:38:42;;;;;;;0.50;0.50;;;23.80;99.90;;;;;;5103461;28;20107;-74
2023/08/16 08:41:08;;;;;;;0.55;0.55;;;23.60;99.90;;;;;;5102041;28;20031;-82
2023/08/16 08:43:36;;;;;;;0.75;0.68;;;23.50;99.90;;;;;;5091842;28;20031;-74
2023/08/16 08:46:04;;;;;;;0.13;0.13;;;23.40;99.90;;;;;;5093155;28;20036;-74
2023/08/16 08:48:31;;;;;;;0.10;0.10;;;23.60;99.90;;;;;;5099907;28;20529;-74
2023/08/16 08:50:58;;;;;;;0.10;0.10;;;23.60;99.90;;;;;;5098994;28;20024;-74
2023/08/16 08:53:25;;;;;;;0.00;0.00;;;23.70;99.90;;;;;;5085838;28;20024;-75
2023/08/16 08:55:56;;;;;;;0.00;0.00;;;24.00;99.90;;;;;;5091799;28;20059;-75
2023/08/16 08:58:24;;;;;;;5.05;0.77;;;24.30;99.90;;;;;;5096967;28;20020;-75
2023/08/16 09:00:53;;;;;;;1.45;0.75;;;24.40;99.90;;;;;;5095315;28;20559;-74
2023/08/16 09:03:22;;;;;;;0.22;0.22;;;24.10;99.90;;;;;;5095636;28;20028;-75
2023/08/16 09:05:53;;;;;;;0.20;0.20;;;24.30;99.90;;;;;;5105240;28;20519;-74
2023/08/16 09:08:20;;;;;;;0.10;0.10;;;24.30;99.90;;;;;;5097349;28;20020;-74
2023/08/16 09:10:46;;;;;;;0.00;0.00;;;24.30;99.90;;;;;;5097204;28;20321;-76
2023/08/16 09:13:12;;;;;;;0.00;0.00;;;24.10;99.90;;;;;;5093079;28;20016;-75
2023/08/16 09:15:39;;;;;;;0.22;0.22;;;23.90;99.90;;;;;;5096667;28;20054;-74
2023/08/16 09:18:17;;;;;;;1.77;0.70;;;24.00;99.90;;;;;;5095896;28;20081;-75
2023/08/16 09:20:43;;;;;;;1.45;0.35;;;24.00;99.90;;;;;;5098288;28;20388;-73
2023/08/16 09:23:17;;;;;;;0.10;0.10;;;23.80;99.90;;;;;;5106783;28;20467;-76
2023/08/16 09:25:44;;;;;;;0.00;0.00;;;23.90;99.90;;;;;;5095574;28;20399;-74
2023/08/16 09:28:11;;;;;;;0.85;0.57;;;24.60;99.90;;;;;;5082652;28;20040;-74
2023/08/16 09:30:37;;;;;;;0.00;0.00;;;24.80;99.90;;;;;;5089886;28;20035;-75
2023/08/16 09:33:03;;;;;;;0.00;0.00;;;24.90;99.90;;;;;;5088420;28;20035;-74
2023/08/16 09:35:30;;;;;;;0.10;0.10;;;25.10;99.90;;;;;;5086142;28;20472;-74
2023/08/16 09:37:56;;;;;;;0.00;0.00;;;25.00;99.90;;;;;;5097893;28;20019;-75
2023/08/16 09:40:23;;;;;;;0.10;0.10;;;24.50;99.90;;;;;;5096437;28;20074;-74
2023/08/16 09:42:49;;;;;;;0.40;0.10;;;24.20;99.90;;;;;;5099403;28;20027;-73
2023/08/16 09:45:15;;;;;;;0.10;0.10;;;24.30;99.90;;;;;;5103122;28;20059;-73
2023/08/16 09:47:42;;;;;;;0.68;0.43;;;24.60;99.90;;;;;;5104479;28;20039;-72
2023/08/16 09:50:09;;;;;;;0.00;0.00;;;24.50;99.90;;;;;;5100497;28;20020;-74
2023/08/16 09:52:39;;;;;;;0.40;0.40;;;24.50;99.90;;;;;;5097964;28;20534;-75
2023/08/16 09:55:08;;;;;;;0.10;0.10;;;24.90;99.90;;;;;;5088196;28;20028;-74
2023/08/16 09:57:35;;;;;;;0.00;0.00;;;25.20;99.90;;;;;;5093481;28;20040;-75
2023/08/16 10:00:05;;;;;;;0.15;0.15;;;25.30;99.90;;;;;;5102557;28;20491;-79
2023/08/16 10:02:40;;;;;;;0.03;0.03;;;25.70;99.90;;;;;;5096666;28;20028;-76
2023/08/16 10:05:06;;;;;;;0.13;0.13;;;26.00;99.90;;;;;;5100023;28;20028;-73
2023/08/16 10:07:34;;;;;;;0.10;0.10;;;25.70;99.90;;;;;;5089417;28;20397;-79
2023/08/16 10:10:00;;;;;;;0.10;0.10;;;25.60;99.90;;;;;;5089668;28;20360;-81
2023/08/16 10:12:28;;;;;;;0.03;0.03;;;25.90;99.90;;;;;;5075474;28;20047;-75
2023/08/16 10:14:53;;;;;;;0.00;0.00;;;26.30;99.90;;;;;;5098161;28;20077;-74
2023/08/16 10:17:21;;;;;;;0.90;0.80;;;26.20;99.90;;;;;;5103154;28;20024;-75
2023/08/16 10:19:52;;;;;;;0.00;0.00;;;26.50;99.90;;;;;;5096987;28;20101;-74
2023/08/16 10:22:31;;;;;;;0.10;0.10;;;26.70;99.90;;;;;;5094743;28;20539;-75
2023/08/16 10:24:59;;;;;;;0.77;0.47;;;26.90;99.90;;;;;;5093855;28;20059;-75
2023/08/16 10:27:27;;;;;;;0.00;0.00;;;26.40;99.90;;;;;;5102084;28;20043;-76
2023/08/16 10:29:58;;;;;;;0.03;0.03;;;26.00;99.90;;;;;;5108505;28;20090;-75
2023/08/16 10:32:24;;;;;;;0.20;0.20;;;26.10;99.90;;;;;;5104091;28;20040;-75
2023/08/16 10:34:54;;;;;;;1.30;0.80;;;25.70;99.90;;;;;;5106654;28;20028;-80
2023/08/16 10:37:21;;;;;;;0.47;0.30;;;25.60;99.90;;;;;;5092719;28;20429;-74
2023/08/16 10:39:50;;;;;;;0.10;0.10;;;25.40;99.90;;;;;;5092623;28;20384;-80
2023/08/16 10:42:16;;;;;;;0.15;0.15;;;25.30;99.90;;;;;;5096504;28;20024;-75
2023/08/16 10:44:50;;;;;;;0.95;0.82;;;25.50;99.90;;;;;;5100228;28;20369;-82
2023/08/16 10:47:37;;;;;;;8.20;0.80;;;25.40;99.90;;;;;;5092852;28;20070;-75
2023/08/16 10:50:03;;;;;;;0.03;0.03;;;25.60;99.90;;;;;;5093125;28;20032;-73
2023/08/16 10:52:30;;;;;;;0.63;0.43;;;25.70;99.90;;;;;;5091685;28;20032;-74
2023/08/16 10:54:58;;;;;;;0.10;0.10;;;26.10;99.90;;;;;;5094230;28;20030;-74
2023/08/16 10:57:25;;;;;;;0.10;0.10;;;26.70;99.90;;;;;;5102713;28;20031;-76
2023/08/16 11:00:03;;;;;;;10.25;0.40;;;27.00;99.90;;;;;;5104872;28;20039;-75
2023/08/16 11:02:35;;;;;;;3.40;1.42;;;27.40;99.10;;;;;;5102089;28;20032;-74
2023/08/16 11:05:01;;;;;;;0.10;0.10;;;27.20;98.00;;;;;;5103387;28;20055;-73
2023/08/16 11:07:28;;;;;;;0.10;0.10;;;27.20;99.40;;;;;;5105607;28;20036;-73
2023/08/16 11:10:03;;;;;;;0.10;0.10;;;27.70;99.10;;;;;;5103535;28;20019;-74
2023/08/16 11:12:34;;;;;;;0.00;0.00;;;27.60;98.60;;;;;;5095065;28;20476;-74
2023/08/16 11:15:00;;;;;;;;;;;27.80;99.30;;;;;;5107845;28;20108;-75
2023/08/16 11:17:27;;;;;;;0.00;0.00;;;27.80;98.40;;;;;;5089254;28;19931;-82
2023/08/16 11:19:53;;;;;;;0.00;0.00;;;27.60;98.40;;;;;;5100066;28;20456;-74
2023/08/16 11:22:22;;;;;;;0.88;0.88;;;27.60;98.10;;;;;;5100244;28;20039;-73
2023/08/16 11:24:49;;;;;;;0.10;0.10;;;27.20;98.00;;;;;;5098169;28;20040;-73
2023/08/16 11:27:22;;;;;;;0.00;0.00;;;27.30;98.50;;;;;;5088663;28;20117;-74
2023/08/16 11:29:54;;;;;;;0.13;0.13;;;27.60;99.80;;;;;;5093660;28;20533;-75
2023/08/16 11:32:40;;;;;;;1.55;1.30;;;27.90;97.10;;;;;;5094085;28;20035;-73
2023/08/16 11:35:14;;;;;;;0.10;0.10;;;27.90;97.70;;;;;;5107893;28;20036;-73
2023/08/16 11:37:43;;;;;;;0.30;0.30;;;28.10;97.80;;;;;;5094126;28;20161;-73
2023/08/16 11:40:10;;;;;;;0.10;0.10;;;28.40;97.70;;;;;;5089521;28;20036;-73
2023/08/16 11:42:36;;;;;;;0.05;0.05;;;28.30;97.00;;;;;;5093933;28;20426;-73
2023/08/16 11:45:15;;;;;;;0.10;0.10;;;27.90;97.80;;;;;;5094458;28;20063;-84
2023/08/16 11:47:41;;;;;;;0.00;0.00;;;27.70;97.30;;;;;;5086705;28;20028;-84
2023/08/16 11:50:08;;;;;;;0.10;0.10;;;28.10;97.40;;;;;;5099322;28;20512;-85
2023/08/16 11:52:34;;;;;;;0.40;0.40;;;27.90;96.80;;;;;;5090507;28;20467;-78
2023/08/16 11:55:08;;;;;;;0.03;0.03;;;27.60;97.10;;;;;;5095502;28;20023;-84
2023/08/16 11:57:44;;;;;;;0.15;0.15;;;27.30;98.80;;;;;;5108907;28;20020;-81
2023/08/16 12:00:11;;;;;;;0.25;0.10;;;27.40;97.90;;;;;;5107568;28;20117;-81
2023/08/16 12:02:37;;;;;;;0.00;0.00;;;27.30;98.60;;;;;;5098899;28;20028;-82
2023/08/16 12:05:10;;;;;;;0.20;0.20;;;27.30;98.30;;;;;;5095258;28;20024;-83
2023/08/16 12:07:53;;;;;;;0.00;0.00;;;27.40;98.20;;;;;;5096775;28;20032;-85
2023/08/16 12:10:29;;;;;;;0.00;0.00;;;27.80;98.40;;;;;;5108830;28;20043;-74
2023/08/16 12:12:55;;;;;;;0.10;0.10;;;27.60;98.50;;;;;;5112516;28;20031;-81
2023/08/16 12:15:26;;;;;;;0.00;0.00;;;27.60;98.30;;;;;;5113988;28;20024;-84
2023/08/16 12:17:54;;;;;;;0.10;0.10;;;27.60;99.70;;;;;;5106376;28;20028;-77
2023/08/16 12:20:23;;;;;;;0.00;0.00;;;27.80;98.40;;;;;;5112701;28;20016;-74
2023/08/16 12:22:49;;;;;;;0.00;0.00;;;27.60;98.40;;;;;;5106227;28;20044;-73
2023/08/16 12:25:14;;;;;;;0.10;0.10;;;27.40;98.60;;;;;;5111521;28;20028;-72
2023/08/16 12:27:40;;;;;;;1.55;0.80;;;27.40;98.90;;;;;;5103189;28;20051;-74
2023/08/16 12:30:06;;;;;;;0.43;0.38;;;27.40;98.10;;;;;;5095584;28;20016;-77
2023/08/16 12:32:32;;;;;;;0.00;0.00;;;27.30;97.60;;;;;;5093385;28;20028;-80
2023/08/16 12:34:58;;;;;;;2.83;0.70;;;27.40;98.50;;;;;;5092913;28;20028;-81
2023/08/16 12:37:24;;;;;;;0.13;0.13;;;27.40;99.10;;;;;;5100520;28;20020;-83
2023/08/16 12:39:49;;;;;;;0.10;0.10;;;27.80;97.40;;;;;;5100480;28;20085;-84
2023/08/16 12:42:15;;;;;;;0.13;0.13;;;27.50;98.20;;;;;;5089027;28;20398;-83
2023/08/16 12:44:41;;;;;;;0.00;0.00;;;27.30;98.50;;;;;;5103104;28;20028;-85
2023/08/16 12:47:07;;;;;;;0.00;0.00;;;27.80;98.10;;;;;;5106001;28;20387;-83
2023/08/16 12:49:33;;;;;;;0.05;0.05;;;27.60;98.70;;;;;;5096991;28;20030;-83